createdAt,value
2019-04-11T00:01:44.940Z,100451
2019-04-11T00:04:08.247Z,100452
2019-04-11T00:06:36.593Z,100448
2019-04-11T00:09:06.082Z,100456
2019-04-11T00:11:34.271Z,100457
2019-04-11T00:14:03.262Z,100448
2019-04-11T00:16:32.922Z,100450
2019-04-11T00:19:00.993Z,100456
2019-04-11T00:21:30.847Z,100464
2019-04-11T00:23:58.642Z,100459
2019-04-11T00:26:28.462Z,100456
2019-04-11T00:28:56.275Z,100458
2019-04-11T00:31:25.185Z,100464
2019-04-11T00:33:54.254Z,100470
2019-04-11T00:36:22.668Z,100465
2019-04-11T00:38:51.500Z,100460
2019-04-11T00:41:20.362Z,100465
2019-04-11T00:43:50.363Z,100473
2019-04-11T00:46:18.818Z,100469
2019-04-11T00:48:48.095Z,100467
2019-04-11T00:51:17.653Z,100465
2019-04-11T00:53:46.497Z,100466
2019-04-11T00:56:14.164Z,100470
2019-04-11T00:58:43.743Z,100466
2019-04-11T01:01:12.587Z,100461
2019-04-11T01:03:41.434Z,100463
2019-04-11T01:06:11.889Z,100472
2019-04-11T01:08:40.453Z,100471
2019-04-11T01:11:09.890Z,100469
2019-04-11T01:13:44.583Z,100470
2019-04-11T01:16:11.205Z,100474
2019-04-11T01:18:40.362Z,100470
2019-04-11T01:21:08.472Z,100469
2019-04-11T01:23:38.053Z,100469
2019-04-11T01:26:06.899Z,100473
2019-04-11T01:28:36.521Z,100466
2019-04-11T01:31:06.408Z,100470
2019-04-11T01:33:35.922Z,100481
2019-04-11T01:36:04.850Z,100482
2019-04-11T01:38:34.546Z,100478
2019-04-11T01:41:02.554Z,100480
2019-04-11T01:43:32.416Z,100476
2019-04-11T01:46:02.128Z,100475
2019-04-11T01:48:35.803Z,100482
2019-04-11T01:51:05.372Z,100484
2019-04-11T01:53:33.510Z,100478
2019-04-11T01:56:03.115Z,100480
2019-04-11T01:58:31.312Z,100496
2019-04-11T02:01:00.781Z,100483
2019-04-11T02:03:30.881Z,100482
2019-04-11T02:05:59.686Z,100486
2019-04-11T02:08:29.268Z,100493
2019-04-11T02:10:59.251Z,100494
2019-04-11T02:13:27.972Z,100484
2019-04-11T02:15:57.304Z,100495
2019-04-11T02:18:25.574Z,100493
2019-04-11T02:20:54.307Z,100494
2019-04-11T02:23:23.326Z,100501
2019-04-11T02:25:52.470Z,100488
2019-04-11T02:28:20.693Z,100494
2019-04-11T02:30:51.254Z,100497
2019-04-11T02:33:18.586Z,100499
2019-04-11T02:35:49.207Z,100502
2019-04-11T02:38:16.827Z,100502
2019-04-11T02:40:47.450Z,100502
2019-04-11T02:43:15.873Z,100505
2019-04-11T02:45:57.017Z,100505
2019-04-11T02:48:13.652Z,100504
2019-04-11T02:50:42.720Z,100509
2019-04-11T02:53:09.884Z,100510
2019-04-11T02:55:38.720Z,100515
2019-04-11T02:58:08.311Z,100517
2019-04-11T03:00:37.615Z,100520
2019-04-11T03:03:07.903Z,100521
2019-04-11T03:05:36.792Z,100515
2019-04-11T03:08:07.799Z,100517
2019-04-11T03:10:33.611Z,100519
2019-04-11T03:13:02.787Z,100520
2019-04-11T03:15:44.668Z,100517
2019-04-11T03:18:02.081Z,100520
2019-04-11T03:20:34.887Z,100521
2019-04-11T03:23:04.053Z,100529
2019-04-11T03:25:28.017Z,100533
2019-04-11T03:27:56.933Z,100536
2019-04-11T03:30:40.818Z,100537
2019-04-11T03:38:12.486Z,100553
2019-04-11T03:40:36.952Z,100538
2019-04-11T03:43:04.319Z,100540
2019-04-11T03:45:38.520Z,100546
2019-04-11T03:48:01.729Z,100537
2019-04-11T03:50:18.910Z,100544
2019-04-11T03:52:45.000Z,100540
2019-04-11T03:55:13.612Z,100552
2019-04-11T03:57:42.219Z,100547
2019-04-11T04:00:12.625Z,100555
2019-04-11T04:02:41.319Z,100560
2019-04-11T04:05:10.639Z,100560
2019-04-11T04:07:38.246Z,100568
2019-04-11T04:10:09.190Z,100561
2019-04-11T04:12:37.780Z,100568
2019-04-11T04:15:10.765Z,100566
2019-04-11T04:17:43.526Z,100565
2019-04-11T04:20:15.148Z,100568
2019-04-11T04:22:46.248Z,100573
2019-04-11T04:25:14.294Z,100573
2019-04-11T04:27:42.955Z,100588
2019-04-11T04:30:13.156Z,100587
2019-04-11T04:32:40.536Z,100591
2019-04-11T04:35:12.765Z,100582
2019-04-11T04:37:38.823Z,100586
2019-04-11T04:40:25.475Z,100586
2019-04-11T04:42:40.366Z,100588
2019-04-11T04:45:05.078Z,100595
2019-04-11T04:47:42.381Z,100599
2019-04-11T04:50:04.546Z,100594
2019-04-11T04:52:32.625Z,100601
2019-04-11T04:55:02.129Z,100607
2019-04-11T04:57:29.816Z,100611
2019-04-11T04:59:59.610Z,100610
2019-04-11T05:02:28.285Z,100611
2019-04-11T05:04:56.625Z,100613
2019-04-11T05:07:27.526Z,100615
2019-04-11T05:09:54.570Z,100616
2019-04-11T05:12:22.754Z,100613
2019-04-11T05:14:51.990Z,100615
2019-04-11T05:17:20.445Z,100618
2019-04-11T05:19:49.289Z,100623
2019-04-11T05:22:19.049Z,100623
2019-04-11T05:24:47.699Z,100630
2019-04-11T05:27:17.421Z,100631
2019-04-11T05:29:45.904Z,100639
2019-04-11T05:32:15.476Z,100642
2019-04-11T05:34:43.782Z,100641
2019-04-11T05:37:13.182Z,100643
2019-04-11T05:39:42.446Z,100643
2019-04-11T05:42:11.265Z,100649
2019-04-11T05:44:40.315Z,100651
2019-04-11T05:47:08.998Z,100653
2019-04-11T05:49:41.631Z,100659
2019-04-11T05:52:06.315Z,100651
2019-04-11T05:54:36.486Z,100660
2019-04-11T05:57:03.996Z,100665
2019-04-11T05:59:32.860Z,100655
2019-04-11T06:02:06.775Z,100662
2019-04-11T06:04:32.330Z,100660
2019-04-11T06:07:01.634Z,100667
2019-04-11T06:09:34.802Z,100672
2019-04-11T06:12:03.893Z,100671
2019-04-11T06:14:35.365Z,100671
2019-04-11T06:17:05.194Z,100678
2019-04-11T06:19:39.681Z,100682
2019-04-11T06:22:08.664Z,100682
2019-04-11T06:24:37.038Z,100684
2019-04-11T06:27:08.841Z,100679
2019-04-11T06:29:36.977Z,100683
2019-04-11T06:32:05.719Z,100687
2019-04-11T06:34:35.467Z,100682
2019-04-11T06:37:05.645Z,100681
2019-04-11T06:39:35.690Z,100686
2019-04-11T06:42:07.648Z,100692
2019-04-11T06:44:39.763Z,100691
2019-04-11T06:47:12.404Z,100693
2019-04-11T06:49:43.210Z,100692
2019-04-11T06:52:12.763Z,100694
2019-04-11T06:54:43.378Z,100684
2019-04-11T06:57:13.955Z,100698
2019-04-11T06:59:42.973Z,100679
2019-04-11T07:02:16.460Z,100691
2019-04-11T07:04:41.688Z,100689
2019-04-11T07:07:11.085Z,100689
2019-04-11T07:09:41.154Z,100685
2019-04-11T07:12:11.720Z,100700
2019-04-11T07:14:43.310Z,100683
2019-04-11T07:17:16.922Z,100693
2019-04-11T07:19:51.598Z,100697
2019-04-11T07:22:25.956Z,100693
2019-04-11T07:25:00.263Z,100690
2019-04-11T07:27:29.852Z,100697
2019-04-11T07:29:58.709Z,100692
2019-04-11T07:32:27.853Z,100695
2019-04-11T07:35:02.357Z,100692
2019-04-11T07:37:32.422Z,100692
2019-04-11T07:40:05.654Z,100702
2019-04-11T07:42:39.081Z,100701
2019-04-11T07:45:14.165Z,100687
2019-04-11T07:47:43.915Z,100701
2019-04-11T07:50:15.601Z,100700
2019-04-11T07:52:42.590Z,100700
2019-04-11T07:55:10.969Z,100702
2019-04-11T07:57:40.384Z,100703
2019-04-11T08:00:09.974Z,100701
2019-04-11T08:02:40.534Z,100710
2019-04-11T08:05:15.591Z,100703
2019-04-11T08:07:51.366Z,100699
2019-04-11T08:10:22.805Z,100703
2019-04-11T08:12:50.656Z,100701
2019-04-11T08:15:25.850Z,100701
2019-04-11T08:17:54.627Z,100703
2019-04-11T08:20:29.107Z,100701
2019-04-11T08:22:59.070Z,100705
2019-04-11T08:25:27.361Z,100707
2019-04-11T08:28:00.696Z,100705
2019-04-11T08:30:26.818Z,100709
2019-04-11T08:32:56.500Z,100702
2019-04-11T08:35:33.146Z,100701
2019-04-11T08:38:07.893Z,100708
2019-04-11T08:40:41.489Z,100714
2019-04-11T08:43:15.197Z,100701
2019-04-11T08:45:44.433Z,100706
2019-04-11T08:48:13.514Z,100699
2019-04-11T08:50:42.805Z,100707
2019-04-11T08:53:16.303Z,100712
2019-04-11T08:55:55.679Z,100710
2019-04-11T08:58:20.486Z,100707
2019-04-11T09:00:49.040Z,100706
2019-04-11T09:03:18.220Z,100707
2019-04-11T09:05:49.218Z,100708
2019-04-11T09:08:18.349Z,100711
2019-04-11T09:10:52.567Z,100699
2019-04-11T09:13:27.131Z,100714
2019-04-11T09:16:01.402Z,100716
2019-04-11T09:18:30.235Z,100715
2019-04-11T09:21:02.528Z,100715
2019-04-11T09:23:32.110Z,100709
2019-04-11T09:26:01.537Z,100715
2019-04-11T09:28:29.823Z,100714
2019-04-11T09:31:06.710Z,100719
2019-04-11T09:33:39.677Z,100709
2019-04-11T09:36:13.446Z,100719
2019-04-11T09:38:42.379Z,100724
2019-04-11T09:41:10.788Z,100727
2019-04-11T09:43:40.141Z,100726
2019-04-11T09:46:08.499Z,100720
2019-04-11T09:48:38.204Z,100715
2019-04-11T09:51:13.559Z,100724
2019-04-11T09:53:42.940Z,100730
2019-04-11T09:56:16.964Z,100723
2019-04-11T09:58:49.719Z,100728
2019-04-11T10:01:21.234Z,100728
2019-04-11T10:03:50.854Z,100724
2019-04-11T10:06:19.679Z,100736
2019-04-11T10:08:53.412Z,100729
2019-04-11T10:11:24.142Z,100735
2019-04-11T10:13:53.279Z,100729
2019-04-11T10:16:24.133Z,100723
2019-04-11T10:18:57.829Z,100726
2019-04-11T10:21:26.496Z,100721
2019-04-11T10:23:55.364Z,100722
2019-04-11T10:26:25.739Z,100713
2019-04-11T10:29:00.318Z,100717
2019-04-11T10:31:30.561Z,100712
2019-04-11T10:34:06.109Z,100722
2019-04-11T10:36:34.951Z,100720
2019-04-11T10:39:06.926Z,100724
2019-04-11T10:41:35.727Z,100721
2019-04-11T10:44:05.454Z,100716
2019-04-11T10:46:39.667Z,100715
2019-04-11T10:49:09.458Z,100727
2019-04-11T10:51:43.519Z,100723
2019-04-11T10:54:13.447Z,100734
2019-04-11T10:56:43.175Z,100724
2019-04-11T10:59:10.926Z,100725
2019-04-11T11:01:40.661Z,100730
2019-04-11T11:04:09.546Z,100736
2019-04-11T11:06:38.297Z,100737
2019-04-11T11:09:08.013Z,100740
2019-04-11T11:11:37.213Z,100729
2019-04-11T11:14:06.642Z,100730
2019-04-11T11:16:39.413Z,100730
2019-04-11T11:19:39.164Z,100733
2019-04-11T11:21:38.780Z,100738
2019-04-11T11:24:11.833Z,100729
2019-04-11T11:26:41.164Z,100729
2019-04-11T11:29:15.831Z,100722
2019-04-11T11:31:44.855Z,100727
2019-04-11T11:34:17.318Z,100742
2019-04-11T11:36:43.749Z,100740
2019-04-11T11:39:15.073Z,100741
2019-04-11T11:41:48.937Z,100738
2019-04-11T11:44:19.150Z,100737
2019-04-11T11:46:50.077Z,100731
2019-04-11T11:49:36.283Z,100731
2019-04-11T11:51:47.786Z,100730
2019-04-11T11:54:16.200Z,100729
2019-04-11T11:56:45.059Z,100729
2019-04-11T11:59:13.913Z,100730
2019-04-11T12:01:49.339Z,100731
2019-04-11T12:04:22.703Z,100727
2019-04-11T12:06:50.649Z,100726
2019-04-11T12:09:22.465Z,100727
2019-04-11T12:11:54.343Z,100718
2019-04-11T12:14:22.829Z,100723
2019-04-11T12:16:58.718Z,100726
2019-04-11T12:19:23.611Z,100722
2019-04-11T12:21:52.224Z,100724
2019-04-11T12:24:26.574Z,100720
2019-04-11T12:27:00.128Z,100716
2019-04-11T12:29:30.615Z,100726
2019-04-11T12:31:59.919Z,100721
2019-04-11T12:34:30.469Z,100725
2019-04-11T12:37:00.124Z,100713
2019-04-11T12:39:30.809Z,100710
2019-04-11T12:41:59.649Z,100710
2019-04-11T12:44:29.487Z,100704
2019-04-11T12:47:07.546Z,100705
2019-04-11T12:49:37.215Z,100709
2019-04-11T12:52:11.475Z,100701
2019-04-11T12:54:40.327Z,100697
2019-04-11T12:57:14.141Z,100700
2019-04-11T12:59:42.991Z,100696
2019-04-11T13:02:17.333Z,100696
2019-04-11T13:04:46.178Z,100704
2019-04-11T13:07:18.993Z,100706
2019-04-11T13:09:48.639Z,100702
2019-04-11T13:12:21.233Z,100692
2019-04-11T13:14:50.095Z,100693
2019-04-11T13:17:19.696Z,100693
2019-04-11T13:20:04.277Z,100692
2019-04-11T13:22:22.882Z,100682
2019-04-11T13:24:51.703Z,100692
2019-04-11T13:27:20.553Z,100691
2019-04-11T13:29:49.401Z,100689
2019-04-11T13:32:18.311Z,100683
2019-04-11T13:34:48.787Z,100683
2019-04-11T13:37:20.595Z,100672
2019-04-11T13:39:49.427Z,100678
2019-04-11T13:42:22.069Z,100682
2019-04-11T13:44:51.667Z,100681
2019-04-11T13:47:24.221Z,100680
2019-04-11T13:49:53.078Z,100682
2019-04-11T13:52:23.702Z,100675
2019-04-11T13:54:57.424Z,100676
2019-04-11T13:57:26.253Z,100658
2019-04-11T14:00:01.579Z,100673
2019-04-11T14:02:31.127Z,100665
2019-04-11T14:04:59.987Z,100675
2019-04-11T14:07:30.503Z,100676
2019-04-11T14:10:01.511Z,100659
2019-04-11T14:12:28.236Z,100662
2019-04-11T14:14:57.090Z,100656
2019-04-11T14:17:26.698Z,100666
2019-04-11T14:19:55.523Z,100649
2019-04-11T14:22:28.945Z,100660
2019-04-11T14:24:53.939Z,100653
2019-04-11T14:27:22.776Z,100659
2019-04-11T14:29:52.354Z,100664
2019-04-11T14:32:23.702Z,100666
2019-04-11T14:34:50.945Z,100657
2019-04-11T14:37:19.786Z,100663
2019-04-11T14:39:48.647Z,100661
2019-04-11T14:42:21.282Z,100660
2019-04-11T14:44:50.106Z,100657
2019-04-11T14:47:24.478Z,100661
2019-04-11T14:49:54.069Z,100657
2019-04-11T14:52:25.529Z,100659
2019-04-11T14:54:54.365Z,100654
2019-04-11T14:57:24.191Z,100659
2019-04-11T14:59:54.189Z,100668
2019-04-11T15:02:20.931Z,100664
2019-04-11T15:04:55.185Z,100661
2019-04-11T15:07:24.020Z,100663
2019-04-11T15:09:53.749Z,100661
2019-04-11T15:12:24.377Z,100659
2019-04-11T15:14:56.964Z,100670
2019-04-11T15:17:27.661Z,100663
2019-04-11T15:19:56.495Z,100665
2019-04-11T15:22:30.917Z,100665
2019-04-11T15:25:05.743Z,100658
2019-04-11T15:27:38.532Z,100672
2019-04-11T15:30:07.637Z,100651
2019-04-11T15:32:40.394Z,100657
2019-04-11T15:35:09.978Z,100662
2019-04-11T15:37:38.833Z,100662
2019-04-11T15:40:07.687Z,100665
2019-04-11T15:42:40.501Z,100664
2019-04-11T15:45:20.129Z,100668
2019-04-11T15:47:50.015Z,100666
2019-04-11T15:50:24.145Z,100665
2019-04-11T15:52:52.986Z,100658
2019-04-11T15:55:25.766Z,100664
2019-04-11T15:57:54.608Z,100665
2019-04-11T16:00:24.298Z,100667
2019-04-11T16:02:53.875Z,100670
2019-04-11T16:05:26.633Z,100671
2019-04-11T16:08:01.095Z,100673
2019-04-11T16:10:30.683Z,100672
2019-04-11T16:13:02.446Z,100671
2019-04-11T16:15:31.334Z,100664
2019-04-11T16:18:05.751Z,100665
2019-04-11T16:20:34.580Z,100661
2019-04-11T16:23:05.007Z,100671
2019-04-11T16:25:34.617Z,100670
2019-04-11T16:28:08.211Z,100671
2019-04-11T16:30:39.639Z,100667
2019-04-11T16:33:06.494Z,100665
2019-04-11T16:35:41.584Z,100671
2019-04-11T16:38:11.167Z,100667
2019-04-11T16:40:40.032Z,100668
2019-04-11T16:43:09.615Z,100664
2019-04-11T16:45:38.455Z,100676
2019-04-11T16:48:07.299Z,100662
2019-04-11T16:50:36.164Z,100677
2019-04-11T16:53:05.003Z,100676
2019-04-11T16:55:36.547Z,100684
2019-04-11T16:58:02.732Z,100680
2019-04-11T17:00:31.570Z,100677
2019-04-11T17:03:01.210Z,100698
2019-04-11T17:05:30.764Z,100694
2019-04-11T17:08:01.125Z,100692
2019-04-11T17:10:35.618Z,100693
2019-04-11T17:13:05.199Z,100687
2019-04-11T17:15:34.039Z,100696
2019-04-11T17:18:03.289Z,100697
2019-04-11T17:20:35.697Z,100694
2019-04-11T17:23:01.337Z,100702
2019-04-11T17:25:30.194Z,100699
2019-04-11T17:27:59.780Z,100707
2019-04-11T17:30:29.226Z,100714
2019-04-11T17:32:58.070Z,100705
2019-04-11T17:35:26.923Z,100713
2019-04-11T17:37:55.767Z,100711
2019-04-11T17:40:25.361Z,100719
2019-04-11T17:42:54.211Z,100725
2019-04-11T17:45:23.059Z,100727
2019-04-11T17:47:51.913Z,100726
2019-04-11T17:50:20.750Z,100735
2019-04-11T17:52:49.595Z,100732
2019-04-11T17:55:18.441Z,100722
2019-04-11T17:57:47.282Z,100729
2019-04-11T18:00:16.127Z,100735
2019-04-11T18:02:46.368Z,100735
2019-04-11T18:05:16.708Z,100746
2019-04-11T18:07:46.858Z,100753
2019-04-11T18:10:12.236Z,100751
2019-04-11T18:12:41.085Z,100751
2019-04-11T18:15:09.932Z,100759
2019-04-11T18:17:38.776Z,100758
2019-04-11T18:20:07.670Z,100760
2019-04-11T18:22:36.486Z,100766
2019-04-11T18:25:05.364Z,100769
2019-04-11T18:27:34.214Z,100770
2019-04-11T18:30:03.063Z,100773
2019-04-11T18:32:31.895Z,100777
2019-04-11T18:35:02.389Z,100777
2019-04-11T18:37:32.105Z,100791
2019-04-11T18:39:59.247Z,100780
2019-04-11T18:42:28.845Z,100794
2019-04-11T18:44:57.687Z,100789
2019-04-11T18:47:26.564Z,100790
2019-04-11T18:49:55.396Z,100805
2019-04-11T18:52:25.434Z,100801
2019-04-11T18:54:53.110Z,100796
2019-04-11T18:57:21.951Z,100809
2019-04-11T18:59:50.796Z,100805
2019-04-11T19:02:20.376Z,100803
2019-04-11T19:04:49.975Z,100808
2019-04-11T19:07:27.572Z,100807
2019-04-11T19:09:47.681Z,100813
2019-04-11T19:12:17.299Z,100811
2019-04-11T19:14:46.551Z,100809
2019-04-11T19:17:15.837Z,100820
2019-04-11T19:19:43.849Z,100821
2019-04-11T19:22:13.448Z,100817
2019-04-11T19:24:43.176Z,100820
2019-04-11T19:27:14.047Z,100822
2019-04-11T19:29:40.876Z,100825
2019-04-11T19:32:09.718Z,100828
2019-04-11T19:34:38.595Z,100826
2019-04-11T19:37:11.621Z,100827
2019-04-11T19:39:36.324Z,100825
2019-04-11T19:42:08.797Z,100824
2019-04-11T19:44:35.173Z,100829
2019-04-11T19:47:02.855Z,100824
2019-04-11T19:49:31.719Z,100821
2019-04-11T19:52:01.476Z,100819
2019-04-11T19:54:32.755Z,100830
2019-04-11T19:57:02.241Z,100831
2019-04-11T19:59:31.114Z,100832
2019-04-11T20:01:59.962Z,100829
2019-04-11T20:04:28.822Z,100833
2019-04-11T20:06:57.657Z,100826
2019-04-11T20:09:27.272Z,100825
2019-04-11T20:11:57.972Z,100826
2019-04-11T20:14:25.747Z,100832
2019-04-11T20:16:54.564Z,100827
2019-04-11T20:19:27.185Z,100833
2019-04-11T20:21:52.274Z,100830
2019-04-11T20:24:21.107Z,100825
2019-04-11T20:26:50.875Z,100827
2019-04-11T20:29:21.447Z,100824
2019-04-11T20:31:48.403Z,100824
2019-04-11T20:34:26.854Z,100820
2019-04-11T20:36:46.099Z,100828
2019-04-11T20:39:15.832Z,100834
2019-04-11T20:41:43.813Z,100824
2019-04-11T20:44:12.655Z,100831
2019-04-11T20:46:41.534Z,100832
2019-04-11T20:49:11.108Z,100834
2019-04-11T20:51:39.945Z,100836
2019-04-11T20:54:08.800Z,100844
2019-04-11T20:56:39.921Z,100847
2019-04-11T20:59:10.056Z,100852
2019-04-11T21:01:36.079Z,100846
2019-04-11T21:04:04.910Z,100849
2019-04-11T21:06:33.761Z,100852
2019-04-11T21:09:03.610Z,100855
2019-04-11T21:11:36.527Z,100850
2019-04-11T21:14:01.069Z,100857
2019-04-11T21:16:29.906Z,100861
2019-04-11T21:18:58.737Z,100853
2019-04-11T21:21:28.308Z,100864
2019-04-11T21:23:58.010Z,100869
2019-04-11T21:26:28.494Z,100856
2019-04-11T21:28:58.727Z,100860
2019-04-11T21:31:23.688Z,100853
2019-04-11T21:33:52.532Z,100869
2019-04-11T21:36:21.366Z,100865
2019-04-11T21:38:50.211Z,100863
2019-04-11T21:41:19.056Z,100875
2019-04-11T21:43:48.623Z,100874
2019-04-11T21:46:17.456Z,100874
2019-04-11T21:48:47.034Z,100877
2019-04-11T21:51:15.861Z,100890
2019-04-11T21:53:45.388Z,100889
2019-04-11T21:56:15.984Z,100892
2019-04-11T21:58:42.381Z,100897
2019-04-11T22:01:11.207Z,100902
2019-04-11T22:03:40.034Z,100899
2019-04-11T22:06:08.873Z,100905
2019-04-11T22:08:37.734Z,100905
2019-04-11T22:11:09.847Z,100905
2019-04-11T22:13:35.408Z,100898
2019-04-11T22:16:04.238Z,100905
2019-04-11T22:18:33.088Z,100906
2019-04-11T22:21:01.916Z,100912
2019-04-11T22:23:30.741Z,100910
2019-04-11T22:25:59.566Z,100909
2019-04-11T22:28:29.014Z,100912
2019-04-11T22:30:57.844Z,100915
2019-04-11T22:33:32.319Z,100917
2019-04-11T22:36:01.171Z,100922
2019-04-11T22:38:31.095Z,100917
2019-04-11T22:41:01.771Z,100918
2019-04-11T22:43:28.439Z,100924
2019-04-11T22:45:57.284Z,100929
2019-04-11T22:48:26.117Z,100927
2019-04-11T22:50:54.937Z,100923
2019-04-11T22:53:23.797Z,100925
2019-04-11T22:55:52.616Z,100924
2019-04-11T22:58:22.175Z,100928
2019-04-11T23:00:51.711Z,100926
2019-04-11T23:03:21.716Z,100927
2019-04-11T23:05:50.541Z,100946
2019-04-11T23:08:20.122Z,100930
2019-04-11T23:10:48.942Z,100932
2019-04-11T23:13:18.518Z,100935
2019-04-11T23:15:47.340Z,100938
2019-04-11T23:18:16.178Z,100944
2019-04-11T23:20:45.014Z,100937
2019-04-11T23:23:14.578Z,100938
2019-04-11T23:25:43.415Z,100942
2019-04-11T23:28:15.584Z,100934
2019-04-11T23:30:41.123Z,100934
2019-04-11T23:33:09.928Z,100932
2019-04-11T23:35:38.759Z,100933
2019-04-11T23:38:08.344Z,100939
2019-04-11T23:40:37.916Z,100937
2019-04-11T23:43:06.753Z,100940
2019-04-11T23:45:35.614Z,100940
2019-04-11T23:48:04.438Z,100936
2019-04-11T23:50:33.284Z,100939
2019-04-11T23:53:02.148Z,100947
2019-04-11T23:55:31.013Z,100946
2019-04-11T23:58:01.603Z,100953
